sensor_id;sensor_type;location;lat;lon;timestamp;pressure;altitude;pressure_sealevel;temperature;humidity
8075;BME280;4080;42.676;23.372;2023-04-24T00:01:48;94875.69;;;12.03;95.87
8075;BME280;4080;42.676;23.372;2023-04-24T00:04:15;94870.91;;;12.05;96.15
8075;BME280;4080;42.676;23.372;2023-04-24T00:06:42;94868.84;;;12.02;96.36
8075;BME280;4080;42.676;23.372;2023-04-24T00:09:09;94856.75;;;11.91;96.33
8075;BME280;4080;42.676;23.372;2023-04-24T00:11:36;94857.53;;;11.97;96.44
8075;BME280;4080;42.676;23.372;2023-04-24T00:14:03;94847.47;;;11.94;96.66
8075;BME280;4080;42.676;23.372;2023-04-24T00:16:30;94843.00;;;11.94;96.72
8075;BME280;4080;42.676;23.372;2023-04-24T00:18:58;94852.53;;;11.90;96.90
8075;BME280;4080;42.676;23.372;2023-04-24T00:21:26;94852.81;;;11.89;97.40
8075;BME280;4080;42.676;23.372;2023-04-24T00:23:53;94842.59;;;11.82;97.74
8075;BME280;4080;42.676;23.372;2023-04-24T00:26:19;94845.25;;;11.77;98.30
8075;BME280;4080;42.676;23.372;2023-04-24T00:28:46;94835.25;;;11.74;98.45
8075;BME280;4080;42.676;23.372;2023-04-24T00:31:13;94838.44;;;11.71;98.48
8075;BME280;4080;42.676;23.372;2023-04-24T00:33:40;94838.72;;;11.69;98.94
8075;BME280;4080;42.676;23.372;2023-04-24T00:36:08;94840.06;;;11.67;99.06
8075;BME280;4080;42.676;23.372;2023-04-24T00:38:34;94835.84;;;11.66;99.23
8075;BME280;4080;42.676;23.372;2023-04-24T00:41:01;94834.00;;;11.66;99.42
8075;BME280;4080;42.676;23.372;2023-04-24T00:43:28;94831.63;;;11.65;99.56
8075;BME280;4080;42.676;23.372;2023-04-24T00:45:55;94838.50;;;11.66;99.92
8075;BME280;4080;42.676;23.372;2023-04-24T00:48:23;94835.28;;;11.69;100.00
8075;BME280;4080;42.676;23.372;2023-04-24T00:50:50;94844.78;;;11.70;100.00
8075;BME280;4080;42.676;23.372;2023-04-24T00:53:18;94842.44;;;11.68;100.00
8075;BME280;4080;42.676;23.372;2023-04-24T00:55:45;94819.31;;;11.50;100.00
8075;BME280;4080;42.676;23.372;2023-04-24T00:58:12;94836.16;;;11.59;100.00
8075;BME280;4080;42.676;23.372;2023-04-24T01:00:40;94839.13;;;11.52;100.00
8075;BME280;4080;42.676;23.372;2023-04-24T01:03:06;94835.22;;;11.45;100.00
8075;BME280;4080;42.676;23.372;2023-04-24T01:05:34;94827.13;;;11.36;100.00
8075;BME280;4080;42.676;23.372;2023-04-24T01:08:01;94835.03;;;11.36;100.00
8075;BME280;4080;42.676;23.372;2023-04-24T01:10:31;94845.31;;;11.38;100.00
8075;BME280;4080;42.676;23.372;2023-04-24T01:12:59;94826.50;;;11.44;100.00
8075;BME280;4080;42.676;23.372;2023-04-24T01:15:26;94828.88;;;11.46;100.00
8075;BME280;4080;42.676;23.372;2023-04-24T01:17:52;94838.09;;;11.48;100.00
8075;BME280;4080;42.676;23.372;2023-04-24T01:20:19;94834.94;;;11.46;100.00
8075;BME280;4080;42.676;23.372;2023-04-24T01:22:48;94829.16;;;11.44;100.00
8075;BME280;4080;42.676;23.372;2023-04-24T01:25:15;94819.66;;;11.43;100.00
8075;BME280;4080;42.676;23.372;2023-04-24T01:27:41;94820.16;;;11.45;100.00
8075;BME280;4080;42.676;23.372;2023-04-24T01:30:09;94808.59;;;11.41;100.00
8075;BME280;4080;42.676;23.372;2023-04-24T01:32:36;94808.91;;;11.30;100.00
8075;BME280;4080;42.676;23.372;2023-04-24T01:35:05;94772.03;;;10.85;100.00
8075;BME280;4080;42.676;23.372;2023-04-24T01:37:32;94811.78;;;11.04;100.00
8075;BME280;4080;42.676;23.372;2023-04-24T01:40:00;94804.66;;;11.00;100.00
8075;BME280;4080;42.676;23.372;2023-04-24T01:42:27;94801.53;;;10.93;100.00
8075;BME280;4080;42.676;23.372;2023-04-24T01:44:53;94807.13;;;10.86;100.00
8075;BME280;4080;42.676;23.372;2023-04-24T01:47:20;94800.56;;;10.83;100.00
8075;BME280;4080;42.676;23.372;2023-04-24T01:49:48;94803.47;;;10.82;100.00
8075;BME280;4080;42.676;23.372;2023-04-24T01:52:16;94788.50;;;10.72;100.00
8075;BME280;4080;42.676;23.372;2023-04-24T01:54:43;94798.97;;;10.82;100.00
8075;BME280;4080;42.676;23.372;2023-04-24T01:57:11;94800.00;;;10.86;100.00
8075;BME280;4080;42.676;23.372;2023-04-24T01:59:38;94800.53;;;10.88;100.00
8075;BME280;4080;42.676;23.372;2023-04-24T02:02:05;94786.53;;;10.88;100.00
8075;BME280;4080;42.676;23.372;2023-04-24T02:04:33;94777.41;;;10.75;100.00
8075;BME280;4080;42.676;23.372;2023-04-24T02:06:59;94803.75;;;10.80;100.00
8075;BME280;4080;42.676;23.372;2023-04-24T02:09:26;94786.34;;;10.79;100.00
8075;BME280;4080;42.676;23.372;2023-04-24T02:11:53;94787.13;;;10.80;100.00
8075;BME280;4080;42.676;23.372;2023-04-24T02:14:21;94786.38;;;10.74;100.00
8075;BME280;4080;42.676;23.372;2023-04-24T02:16:47;94785.31;;;10.70;100.00
8075;BME280;4080;42.676;23.372;2023-04-24T02:19:14;94790.13;;;10.63;100.00
8075;BME280;4080;42.676;23.372;2023-04-24T02:21:41;94783.03;;;10.58;100.00
8075;BME280;4080;42.676;23.372;2023-04-24T02:24:07;94787.00;;;10.56;100.00
8075;BME280;4080;42.676;23.372;2023-04-24T02:26:34;94744.44;;;10.29;100.00
8075;BME280;4080;42.676;23.372;2023-04-24T02:29:01;94791.53;;;10.50;100.00
8075;BME280;4080;42.676;23.372;2023-04-24T02:31:29;94793.38;;;10.50;100.00
8075;BME280;4080;42.676;23.372;2023-04-24T02:33:55;94790.22;;;10.48;100.00
8075;BME280;4080;42.676;23.372;2023-04-24T02:36:22;94779.16;;;10.46;100.00
8075;BME280;4080;42.676;23.372;2023-04-24T02:38:49;94780.47;;;10.43;100.00
8075;BME280;4080;42.676;23.372;2023-04-24T02:41:15;94779.41;;;10.39;100.00
8075;BME280;4080;42.676;23.372;2023-04-24T02:43:42;94763.88;;;10.38;100.00
8075;BME280;4080;42.676;23.372;2023-04-24T02:46:09;94765.72;;;10.37;100.00
8075;BME280;4080;42.676;23.372;2023-04-24T02:48:37;94767.56;;;10.37;100.00
8075;BME280;4080;42.676;23.372;2023-04-24T02:51:04;94763.88;;;10.38;100.00
8075;BME280;4080;42.676;23.372;2023-04-24T02:53:31;94771.53;;;10.34;100.00
8075;BME280;4080;42.676;23.372;2023-04-24T02:55:58;94772.09;;;10.31;100.00
8075;BME280;4080;42.676;23.372;2023-04-24T02:58:25;94764.44;;;10.30;100.00
8075;BME280;4080;42.676;23.372;2023-04-24T03:00:53;94764.44;;;10.30;100.00
8075;BME280;4080;42.676;23.372;2023-04-24T03:03:20;94769.22;;;10.27;100.00
8075;BME280;4080;42.676;23.372;2023-04-24T03:05:48;94769.72;;;10.30;100.00
8075;BME280;4080;42.676;23.372;2023-04-24T03:08:15;94767.63;;;10.26;100.00
8075;BME280;4080;42.676;23.372;2023-04-24T03:10:42;94769.25;;;10.22;100.00
8075;BME280;4080;42.676;23.372;2023-04-24T03:13:09;94768.72;;;10.20;100.00
8075;BME280;4080;42.676;23.372;2023-04-24T03:15:36;94773.44;;;10.23;100.00
8075;BME280;4080;42.676;23.372;2023-04-24T03:18:02;94771.34;;;10.25;100.00
8075;BME280;4080;42.676;23.372;2023-04-24T03:20:29;94771.84;;;10.27;100.00
8075;BME280;4080;42.676;23.372;2023-04-24T03:22:57;94770.78;;;10.29;100.00
8075;BME280;4080;42.676;23.372;2023-04-24T03:25:24;94771.81;;;10.33;100.00
8075;BME280;4080;42.676;23.372;2023-04-24T03:27:51;94779.69;;;10.38;100.00
8075;BME280;4080;42.676;23.372;2023-04-24T03:30:17;94768.88;;;10.39;100.00
8075;BME280;4080;42.676;23.372;2023-04-24T03:32:44;94778.38;;;10.40;100.00
8075;BME280;4080;42.676;23.372;2023-04-24T03:35:11;94780.75;;;10.42;100.00
8075;BME280;4080;42.676;23.372;2023-04-24T03:37:37;94777.81;;;10.48;100.00
8075;BME280;4080;42.676;23.372;2023-04-24T03:40:08;94777.84;;;10.43;100.00
8075;BME280;4080;42.676;23.372;2023-04-24T03:42:35;94777.56;;;10.40;100.00
8075;BME280;4080;42.676;23.372;2023-04-24T03:45:02;94776.00;;;10.39;100.00
8075;BME280;4080;42.676;23.372;2023-04-24T03:47:29;94775.44;;;10.47;100.00
8075;BME280;4080;42.676;23.372;2023-04-24T03:49:55;94775.69;;;10.50;100.00
8075;BME280;4080;42.676;23.372;2023-04-24T03:52:22;94783.03;;;10.58;100.00
8075;BME280;4080;42.676;23.372;2023-04-24T03:54:49;94782.97;;;10.69;100.00
8075;BME280;4080;42.676;23.372;2023-04-24T03:57:17;94775.03;;;10.74;100.00
8075;BME280;4080;42.676;23.372;2023-04-24T03:59:44;94779.25;;;10.75;100.00
8075;BME280;4080;42.676;23.372;2023-04-24T04:02:10;94778.97;;;10.71;100.00
8075;BME280;4080;42.676;23.372;2023-04-24T04:04:37;94780.59;;;10.72;100.00
8075;BME280;4080;42.676;23.372;2023-04-24T04:07:03;94782.16;;;10.73;100.00
8075;BME280;4080;42.676;23.372;2023-04-24T04:09:30;94759.00;;;10.60;100.00
8075;BME280;4080;42.676;23.372;2023-04-24T04:11:57;94784.88;;;11.02;100.00
8075;BME280;4080;42.676;23.372;2023-04-24T04:14:27;94793.50;;;11.13;100.00
8075;BME280;4080;42.676;23.372;2023-04-24T04:16:54;94790.81;;;11.18;100.00
8075;BME280;4080;42.676;23.372;2023-04-24T04:19:20;94773.47;;;11.07;100.00
8075;BME280;4080;42.676;23.372;2023-04-24T04:21:47;94788.22;;;11.13;100.00
8075;BME280;4080;42.676;23.372;2023-04-24T04:24:18;94791.13;;;11.11;100.00
8075;BME280;4080;42.676;23.372;2023-04-24T04:26:46;94793.50;;;11.13;100.00
8075;BME280;4080;42.676;23.372;2023-04-24T04:29:12;94784.03;;;11.07;100.00
8075;BME280;4080;42.676;23.372;2023-04-24T04:31:41;94785.63;;;11.08;100.00
8075;BME280;4080;42.676;23.372;2023-04-24T04:34:08;94798.25;;;11.11;100.00
8075;BME280;4080;42.676;23.372;2023-04-24T04:36:35;94781.91;;;11.09;100.00
8075;BME280;4080;42.676;23.372;2023-04-24T04:39:05;94796.59;;;11.20;100.00
8075;BME280;4080;42.676;23.372;2023-04-24T04:41:32;94796.31;;;11.22;100.00
8075;BME280;4080;42.676;23.372;2023-04-24T04:44:00;94804.75;;;11.24;100.00
8075;BME280;4080;42.676;23.372;2023-04-24T04:46:27;94807.66;;;11.22;100.00
8075;BME280;4080;42.676;23.372;2023-04-24T04:48:59;94808.22;;;11.19;100.00
8075;BME280;4080;42.676;23.372;2023-04-24T04:51:26;94809.81;;;11.20;100.00
8075;BME280;4080;42.676;23.372;2023-04-24T04:53:53;94815.53;;;11.27;100.00
8075;BME280;4080;42.676;23.372;2023-04-24T04:56:20;94825.03;;;11.28;100.00
8075;BME280;4080;42.676;23.372;2023-04-24T04:58:47;94815.78;;;11.31;100.00
8075;BME280;4080;42.676;23.372;2023-04-24T05:01:14;94817.66;;;11.59;100.00
8075;BME280;4080;42.676;23.372;2023-04-24T05:03:40;94789.66;;;11.58;100.00
8075;BME280;4080;42.676;23.372;2023-04-24T05:06:08;94823.44;;;11.95;100.00
8075;BME280;4080;42.676;23.372;2023-04-24T05:08:35;94822.81;;;12.03;100.00
8075;BME280;4080;42.676;23.372;2023-04-24T05:11:02;94827.63;;;12.25;100.00
8075;BME280;4080;42.676;23.372;2023-04-24T05:13:29;94787.16;;;12.25;100.00
8075;BME280;4080;42.676;23.372;2023-04-24T05:15:55;94806.41;;;12.49;100.00
8075;BME280;4080;42.676;23.372;2023-04-24T05:18:22;94823.03;;;12.73;100.00
8075;BME280;4080;42.676;23.372;2023-04-24T05:20:49;94825.22;;;12.90;100.00
8075;BME280;4080;42.676;23.372;2023-04-24T05:23:17;94784.69;;;12.52;100.00
8075;BME280;4080;42.676;23.372;2023-04-24T05:25:43;94830.97;;;12.73;100.00
8075;BME280;4080;42.676;23.372;2023-04-24T05:28:11;94822.59;;;12.66;99.04
8075;BME280;4080;42.676;23.372;2023-04-24T05:30:38;94826.19;;;12.57;98.79
8075;BME280;4080;42.676;23.372;2023-04-24T05:33:04;94822.00;;;12.51;99.40
8075;BME280;4080;42.676;23.372;2023-04-24T05:35:31;94802.19;;;12.48;99.50
8075;BME280;4080;42.676;23.372;2023-04-24T05:37:58;94814.44;;;12.63;99.13
8075;BME280;4080;42.676;23.372;2023-04-24T05:40:26;94823.09;;;12.68;99.21
8075;BME280;4080;42.676;23.372;2023-04-24T05:42:53;94824.47;;;12.66;99.87
8075;BME280;4080;42.676;23.372;2023-04-24T05:45:19;94824.31;;;12.76;99.99
8075;BME280;4080;42.676;23.372;2023-04-24T05:47:46;94824.97;;;13.05;100.00
8075;BME280;4080;42.676;23.372;2023-04-24T05:50:13;94838.34;;;13.52;99.39
8075;BME280;4080;42.676;23.372;2023-04-24T05:52:40;94835.00;;;13.92;98.58
8075;BME280;4080;42.676;23.372;2023-04-24T05:55:07;94827.69;;;14.17;95.45
8075;BME280;4080;42.676;23.372;2023-04-24T05:57:35;94827.50;;;14.41;94.67
8075;BME280;4080;42.676;23.372;2023-04-24T06:00:03;94829.16;;;14.78;93.69
8075;BME280;4080;42.676;23.372;2023-04-24T06:02:30;94828.69;;;15.12;90.56
8075;BME280;4080;42.676;23.372;2023-04-24T06:04:57;94821.72;;;15.25;89.01
8075;BME280;4080;42.676;23.372;2023-04-24T06:07:25;94833.91;;;15.39;88.63
8075;BME280;4080;42.676;23.372;2023-04-24T06:09:52;94818.47;;;15.50;87.44
8075;BME280;4080;42.676;23.372;2023-04-24T06:12:19;94825.41;;;15.73;86.41
8075;BME280;4080;42.676;23.372;2023-04-24T06:14:47;94828.41;;;15.80;84.60
8075;BME280;4080;42.676;23.372;2023-04-24T06:17:13;94833.47;;;15.91;85.29
8075;BME280;4080;42.676;23.372;2023-04-24T06:19:40;94832.00;;;16.07;84.50
8075;BME280;4080;42.676;23.372;2023-04-24T06:22:07;94819.31;;;16.04;82.80
8075;BME280;4080;42.676;23.372;2023-04-24T06:24:34;94825.53;;;16.30;83.25
8075;BME280;4080;42.676;23.372;2023-04-24T06:27:00;94827.22;;;16.66;82.44
8075;BME280;4080;42.676;23.372;2023-04-24T06:29:28;94824.72;;;16.78;80.93
8075;BME280;4080;42.676;23.372;2023-04-24T06:31:56;94838.88;;;17.04;80.50
8075;BME280;4080;42.676;23.372;2023-04-24T06:34:22;94834.03;;;17.32;79.48
8075;BME280;4080;42.676;23.372;2023-04-24T06:36:49;94838.13;;;17.56;77.27
8075;BME280;4080;42.676;23.372;2023-04-24T06:39:16;94836.69;;;17.58;76.87
8075;BME280;4080;42.676;23.372;2023-04-24T06:41:42;94839.53;;;17.53;75.73
8075;BME280;4080;42.676;23.372;2023-04-24T06:44:09;94838.91;;;17.56;76.34
8075;BME280;4080;42.676;23.372;2023-04-24T06:46:36;94843.63;;;17.77;77.41
8075;BME280;4080;42.676;23.372;2023-04-24T06:49:04;94844.56;;;17.81;75.71
8075;BME280;4080;42.676;23.372;2023-04-24T06:51:31;94837.56;;;18.06;76.47
8075;BME280;4080;42.676;23.372;2023-04-24T06:53:58;94825.88;;;18.27;73.41
8075;BME280;4080;42.676;23.372;2023-04-24T06:56:27;94809.00;;;18.44;72.66
8075;BME280;4080;42.676;23.372;2023-04-24T06:58:54;94836.63;;;18.86;72.61
8075;BME280;4080;42.676;23.372;2023-04-24T07:01:21;94822.25;;;19.00;69.29
8075;BME280;4080;42.676;23.372;2023-04-24T07:03:48;94787.75;;;19.07;69.27
8075;BME280;4080;42.676;23.372;2023-04-24T07:06:16;94824.72;;;19.46;68.15
8075;BME280;4080;42.676;23.372;2023-04-24T07:08:46;94819.44;;;19.17;69.29
8075;BME280;4080;42.676;23.372;2023-04-24T07:11:13;94825.88;;;18.95;69.75
8075;BME280;4080;42.676;23.372;2023-04-24T07:13:40;94822.16;;;18.87;71.74
8075;BME280;4080;42.676;23.372;2023-04-24T07:16:07;94818.19;;;18.93;72.44
8075;BME280;4080;42.676;23.372;2023-04-24T07:18:34;94772.78;;;18.64;72.90
8075;BME280;4080;42.676;23.372;2023-04-24T07:21:01;94817.34;;;19.22;72.76
8075;BME280;4080;42.676;23.372;2023-04-24T07:23:30;94784.09;;;19.32;71.92
8075;BME280;4080;42.676;23.372;2023-04-24T07:25:57;94788.16;;;19.71;71.05
8075;BME280;4080;42.676;23.372;2023-04-24T07:28:23;94782.84;;;19.83;69.60
8075;BME280;4080;42.676;23.372;2023-04-24T07:30:51;94815.34;;;20.06;68.64
8075;BME280;4080;42.676;23.372;2023-04-24T07:33:19;94809.44;;;20.13;68.09
8075;BME280;4080;42.676;23.372;2023-04-24T07:35:46;94809.78;;;20.11;67.35
8075;BME280;4080;42.676;23.372;2023-04-24T07:38:12;94809.22;;;20.18;68.19
8075;BME280;4080;42.676;23.372;2023-04-24T07:40:41;94812.75;;;20.43;66.10
8075;BME280;4080;42.676;23.372;2023-04-24T07:43:07;94808.72;;;20.73;65.11
8075;BME280;4080;42.676;23.372;2023-04-24T07:45:34;94764.41;;;20.64;64.90
8075;BME280;4080;42.676;23.372;2023-04-24T07:48:02;94803.97;;;21.19;63.63
8075;BME280;4080;42.676;23.372;2023-04-24T07:50:29;94808.78;;;21.26;62.52
8075;BME280;4080;42.676;23.372;2023-04-24T07:52:56;94806.22;;;21.17;63.04
8075;BME280;4080;42.676;23.372;2023-04-24T07:55:23;94801.66;;;20.93;63.10
8075;BME280;4080;42.676;23.372;2023-04-24T07:57:51;94792.69;;;21.01;64.27
8075;BME280;4080;42.676;23.372;2023-04-24T08:00:18;94801.94;;;21.28;63.05
8075;BME280;4080;42.676;23.372;2023-04-24T08:02:45;94796.16;;;21.54;60.43
8075;BME280;4080;42.676;23.372;2023-04-24T08:05:12;94798.19;;;21.73;59.53
8075;BME280;4080;42.676;23.372;2023-04-24T08:07:38;94796.50;;;21.81;60.34
8075;BME280;4080;42.676;23.372;2023-04-24T08:10:08;94797.25;;;21.81;59.83
8075;BME280;4080;42.676;23.372;2023-04-24T08:12:35;94800.06;;;22.00;59.34
8075;BME280;4080;42.676;23.372;2023-04-24T08:15:04;94794.13;;;22.07;58.46
8075;BME280;4080;42.676;23.372;2023-04-24T08:17:32;94753.53;;;21.96;59.68
8075;BME280;4080;42.676;23.372;2023-04-24T08:19:59;94792.81;;;22.48;59.75
8075;BME280;4080;42.676;23.372;2023-04-24T08:22:26;94770.34;;;22.56;57.94
8075;BME280;4080;42.676;23.372;2023-04-24T08:24:53;94774.59;;;22.57;56.64
8075;BME280;4080;42.676;23.372;2023-04-24T08:27:21;94778.25;;;22.49;56.79
8075;BME280;4080;42.676;23.372;2023-04-24T08:29:48;94783.09;;;22.59;56.42
8075;BME280;4080;42.676;23.372;2023-04-24T08:32:17;94754.97;;;22.38;57.17
8075;BME280;4080;42.676;23.372;2023-04-24T08:34:43;94740.53;;;21.98;57.40
8075;BME280;4080;42.676;23.372;2023-04-24T08:37:10;94753.97;;;21.98;59.22
8075;BME280;4080;42.676;23.372;2023-04-24T08:39:37;94774.13;;;22.36;60.58
8075;BME280;4080;42.676;23.372;2023-04-24T08:42:05;94743.25;;;22.46;56.80
8075;BME280;4080;42.676;23.372;2023-04-24T08:44:33;94764.25;;;22.75;56.55
8075;BME280;4080;42.676;23.372;2023-04-24T08:47:01;94761.47;;;22.87;55.74
8075;BME280;4080;42.676;23.372;2023-04-24T08:49:30;94731.50;;;22.70;56.62
8075;BME280;4080;42.676;23.372;2023-04-24T08:51:57;94752.41;;;22.96;57.13
8075;BME280;4080;42.676;23.372;2023-04-24T08:54:25;94744.03;;;22.97;56.30
8075;BME280;4080;42.676;23.372;2023-04-24T08:56:53;94735.94;;;23.16;54.69
8075;BME280;4080;42.676;23.372;2023-04-24T08:59:24;94749.84;;;23.38;55.40
8075;BME280;4080;42.676;23.372;2023-04-24T09:01:51;94702.66;;;23.24;55.32
8075;BME280;4080;42.676;23.372;2023-04-24T09:04:20;94737.00;;;23.70;54.49
8075;BME280;4080;42.676;23.372;2023-04-24T09:06:51;94748.44;;;23.63;53.14
8075;BME280;4080;42.676;23.372;2023-04-24T09:09:18;94739.78;;;23.73;52.51
8075;BME280;4080;42.676;23.372;2023-04-24T09:11:45;94738.97;;;23.92;52.75
8075;BME280;4080;42.676;23.372;2023-04-24T09:14:12;94729.03;;;23.96;51.34
8075;BME280;4080;42.676;23.372;2023-04-24T09:16:39;94721.59;;;23.90;52.32
8075;BME280;4080;42.676;23.372;2023-04-24T09:19:06;94726.84;;;23.82;52.07
8075;BME280;4080;42.676;23.372;2023-04-24T09:21:34;94710.69;;;23.60;52.29
8075;BME280;4080;42.676;23.372;2023-04-24T09:24:03;94731.81;;;23.80;52.12
8075;BME280;4080;42.676;23.372;2023-04-24T09:26:31;94715.84;;;23.68;51.37
8075;BME280;4080;42.676;23.372;2023-04-24T09:28:59;94707.03;;;23.71;53.83
8075;BME280;4080;42.676;23.372;2023-04-24T09:31:27;94712.72;;;23.66;51.31
8075;BME280;4080;42.676;23.372;2023-04-24T09:33:56;94706.06;;;23.41;51.67
8075;BME280;4080;42.676;23.372;2023-04-24T09:36:30;94697.50;;;23.35;52.56
8075;BME280;4080;42.676;23.372;2023-04-24T09:38:58;94690.78;;;23.06;54.54
8075;BME280;4080;42.676;23.372;2023-04-24T09:41:27;94696.41;;;22.98;55.88
8075;BME280;4080;42.676;23.372;2023-04-24T09:43:54;94693.31;;;23.18;53.51
8075;BME280;4080;42.676;23.372;2023-04-24T09:46:29;94682.69;;;23.26;53.53
8075;BME280;4080;42.676;23.372;2023-04-24T09:48:56;94689.78;;;23.14;53.27
8075;BME280;4080;42.676;23.372;2023-04-24T09:51:33;94648.59;;;22.72;53.99
8075;BME280;4080;42.676;23.372;2023-04-24T09:54:00;94679.69;;;23.08;54.51
8075;BME280;4080;42.676;23.372;2023-04-24T09:56:32;94691.34;;;23.35;53.47
8075;BME280;4080;42.676;23.372;2023-04-24T09:59:04;94634.94;;;23.42;53.62
8075;BME280;4080;42.676;23.372;2023-04-24T10:01:31;94685.97;;;24.00;51.53
8075;BME280;4080;42.676;23.372;2023-04-24T10:03:58;94657.94;;;24.04;51.09
8075;BME280;4080;42.676;23.372;2023-04-24T10:06:31;94678.47;;;24.12;50.71
8075;BME280;4080;42.676;23.372;2023-04-24T10:11:29;94671.19;;;24.39;50.90
8075;BME280;4080;42.676;23.372;2023-04-24T10:13:57;94666.75;;;24.51;49.66
8075;BME280;4080;42.676;23.372;2023-04-24T10:16:24;94650.09;;;24.75;49.41
8075;BME280;4080;42.676;23.372;2023-04-24T10:18:52;94650.28;;;24.89;48.99
8075;BME280;4080;42.676;23.372;2023-04-24T10:21:19;94653.84;;;24.97;48.06
8075;BME280;4080;42.676;23.372;2023-04-24T10:23:48;94647.97;;;24.88;48.13
8075;BME280;4080;42.676;23.372;2023-04-24T10:26:16;94628.50;;;24.71;48.63
8075;BME280;4080;42.676;23.372;2023-04-24T10:28:47;94647.19;;;24.87;47.89
8075;BME280;4080;42.676;23.372;2023-04-24T10:31:14;94647.91;;;25.14;48.36
8075;BME280;4080;42.676;23.372;2023-04-24T10:33:42;94642.31;;;25.33;46.49
8075;BME280;4080;42.676;23.372;2023-04-24T10:36:10;94606.41;;;24.92;47.06
8075;BME280;4080;42.676;23.372;2023-04-24T10:38:38;94601.13;;;25.03;47.34
8075;BME280;4080;42.676;23.372;2023-04-24T10:41:07;94629.81;;;25.55;47.74
8075;BME280;4080;42.676;23.372;2023-04-24T10:43:34;94620.47;;;25.46;44.09
8075;BME280;4080;42.676;23.372;2023-04-24T10:46:04;94632.66;;;25.29;45.60
8075;BME280;4080;42.676;23.372;2023-04-24T10:48:32;94611.19;;;25.06;44.41
8075;BME280;4080;42.676;23.372;2023-04-24T10:50:59;94612.34;;;24.75;45.33
8075;BME280;4080;42.676;23.372;2023-04-24T10:53:28;94610.06;;;24.77;46.23
8075;BME280;4080;42.676;23.372;2023-04-24T10:55:58;94609.63;;;25.05;45.67
8075;BME280;4080;42.676;23.372;2023-04-24T10:58:36;94592.19;;;25.32;44.74
8075;BME280;4080;42.676;23.372;2023-04-24T11:01:05;94604.72;;;25.51;43.36
8075;BME280;4080;42.676;23.372;2023-04-24T11:03:33;94596.25;;;25.56;42.31
8075;BME280;4080;42.676;23.372;2023-04-24T11:06:02;94599.63;;;25.43;42.15
8075;BME280;4080;42.676;23.372;2023-04-24T11:08:32;94589.22;;;25.07;42.94
8075;BME280;4080;42.676;23.372;2023-04-24T11:11:01;94580.56;;;24.58;45.02
8075;BME280;4080;42.676;23.372;2023-04-24T11:14:01;94577.53;;;24.06;48.78
8075;BME280;4080;42.676;23.372;2023-04-24T11:16:30;94581.94;;;23.46;50.46
8075;BME280;4080;42.676;23.372;2023-04-24T11:19:03;94555.75;;;22.97;52.25
8075;BME280;4080;42.676;23.372;2023-04-24T11:21:31;94559.69;;;22.65;53.01
8075;BME280;4080;42.676;23.372;2023-04-24T11:23:58;94572.13;;;22.34;53.94
8075;BME280;4080;42.676;23.372;2023-04-24T11:26:25;94573.19;;;21.94;55.26
8075;BME280;4080;42.676;23.372;2023-04-24T11:29:06;94582.22;;;21.70;56.40
8075;BME280;4080;42.676;23.372;2023-04-24T11:31:39;94598.41;;;21.43;57.20
8075;BME280;4080;42.676;23.372;2023-04-24T11:34:09;94619.97;;;21.30;59.23
8075;BME280;4080;42.676;23.372;2023-04-24T11:36:37;94598.84;;;20.85;63.07
8075;BME280;4080;42.676;23.372;2023-04-24T11:39:04;94632.94;;;20.72;71.83
8075;BME280;4080;42.676;23.372;2023-04-24T11:41:31;94623.22;;;20.40;75.58
8075;BME280;4080;42.676;23.372;2023-04-24T11:43:58;94617.88;;;20.28;77.73
8075;BME280;4080;42.676;23.372;2023-04-24T11:46:28;94606.16;;;20.08;81.46
8075;BME280;4080;42.676;23.372;2023-04-24T11:48:58;94602.81;;;20.11;83.39
8075;BME280;4080;42.676;23.372;2023-04-24T11:51:26;94610.63;;;20.16;75.56
8075;BME280;4080;42.676;23.372;2023-04-24T11:53:54;94604.59;;;20.07;72.69
8075;BME280;4080;42.676;23.372;2023-04-24T11:56:21;94591.47;;;19.53;69.30
8075;BME280;4080;42.676;23.372;2023-04-24T11:58:48;94577.03;;;19.21;72.92
8075;BME280;4080;42.676;23.372;2023-04-24T12:01:15;94577.06;;;19.33;73.98
8075;BME280;4080;42.676;23.372;2023-04-24T12:03:41;94587.16;;;19.15;71.33
8075;BME280;4080;42.676;23.372;2023-04-24T12:06:13;94579.28;;;19.31;71.68
8075;BME280;4080;42.676;23.372;2023-04-24T12:08:40;94574.94;;;19.51;72.58
8075;BME280;4080;42.676;23.372;2023-04-24T12:11:07;94575.34;;;19.62;70.86
8075;BME280;4080;42.676;23.372;2023-04-24T12:13:34;94570.59;;;19.46;69.17
8075;BME280;4080;42.676;23.372;2023-04-24T12:16:02;94568.94;;;19.30;72.44
8075;BME280;4080;42.676;23.372;2023-04-24T12:18:29;94566.44;;;19.12;71.29
8075;BME280;4080;42.676;23.372;2023-04-24T12:21:15;94522.06;;;18.87;70.22
8075;BME280;4080;42.676;23.372;2023-04-24T12:23:43;94563.22;;;19.19;70.99
8075;BME280;4080;42.676;23.372;2023-04-24T12:26:10;94567.69;;;19.27;72.60
8075;BME280;4080;42.676;23.372;2023-04-24T12:28:37;94551.41;;;19.20;71.45
8075;BME280;4080;42.676;23.372;2023-04-24T12:31:06;94562.22;;;19.11;70.14
8075;BME280;4080;42.676;23.372;2023-04-24T12:33:33;94521.63;;;18.97;70.93
8075;BME280;4080;42.676;23.372;2023-04-24T12:36:01;94539.94;;;19.19;68.92
8075;BME280;4080;42.676;23.372;2023-04-24T12:38:29;94534.47;;;19.16;70.38
8075;BME280;4080;42.676;23.372;2023-04-24T12:41:03;94527.25;;;19.04;72.00
8075;BME280;4080;42.676;23.372;2023-04-24T12:43:30;94532.66;;;18.96;73.56
8075;BME280;4080;42.676;23.372;2023-04-24T12:45:57;94524.63;;;18.83;74.41
8075;BME280;4080;42.676;23.372;2023-04-24T12:48:25;94520.56;;;18.98;75.31
8075;BME280;4080;42.676;23.372;2023-04-24T12:50:52;94503.25;;;18.96;74.69
8075;BME280;4080;42.676;23.372;2023-04-24T12:53:18;94505.94;;;18.83;72.80
8075;BME280;4080;42.676;23.372;2023-04-24T12:55:46;94521.19;;;18.83;74.84
8075;BME280;4080;42.676;23.372;2023-04-24T12:58:18;94498.34;;;18.98;72.87
8075;BME280;4080;42.676;23.372;2023-04-24T13:00:45;94493.50;;;19.12;73.55
8075;BME280;4080;42.676;23.372;2023-04-24T13:03:12;94472.53;;;19.26;72.95
8075;BME280;4080;42.676;23.372;2023-04-24T13:05:39;94483.91;;;19.47;69.68
8075;BME280;4080;42.676;23.372;2023-04-24T13:08:05;94475.00;;;19.43;69.74
8075;BME280;4080;42.676;23.372;2023-04-24T13:10:33;94469.19;;;19.41;70.62
8075;BME280;4080;42.676;23.372;2023-04-24T13:13:02;94473.44;;;19.67;70.83